createdAt,value
2023-08-06T00:01:45.664Z,96601.86
2023-08-06T00:04:16.916Z,96598.84
2023-08-06T00:06:48.109Z,96601.66
2023-08-06T00:09:19.301Z,96602.56
2023-08-06T00:11:50.680Z,96595.38
2023-08-06T00:14:21.882Z,96594.86
2023-08-06T00:16:52.940Z,96587.96
2023-08-06T00:19:24.283Z,96594.25
2023-08-06T00:21:55.422Z,96599.65
2023-08-06T00:24:26.459Z,96596.52
2023-08-06T00:26:57.504Z,96596.30
2023-08-06T00:29:28.552Z,96597.20
2023-08-06T00:31:59.488Z,96601.90
2023-08-06T00:34:30.459Z,96608.65
2023-08-06T00:37:01.444Z,96612.45
2023-08-06T00:39:32.754Z,96609.60
2023-08-06T00:42:03.832Z,96609.14
2023-08-06T00:44:34.773Z,96598.62
2023-08-06T00:47:06.510Z,96588.92
2023-08-06T00:49:37.722Z,96591.60
2023-08-06T00:52:10.686Z,96584.70
2023-08-06T00:54:43.193Z,96591.14
2023-08-06T00:57:15.265Z,96595.80
2023-08-06T00:59:46.537Z,96596.95
2023-08-06T01:02:17.843Z,96588.30
2023-08-06T01:04:49.273Z,96581.33
2023-08-06T01:07:30.845Z,96575.53
2023-08-06T01:10:29.152Z,96558.98
2023-08-06T01:13:11.176Z,96545.02
2023-08-06T01:15:48.336Z,96542.05
2023-08-06T01:18:19.475Z,96538.20
2023-08-06T01:20:52.236Z,96541.30
2023-08-06T01:23:23.697Z,96544.83
2023-08-06T01:26:05.079Z,96549.20
2023-08-06T01:28:46.407Z,96551.86
2023-08-06T01:31:21.130Z,96551.85
2023-08-06T01:33:54.341Z,96544.87
2023-08-06T01:36:26.155Z,96540.34
2023-08-06T01:38:58.488Z,96537.43
2023-08-06T01:41:29.725Z,96542.30
2023-08-06T01:44:00.716Z,96542.58
2023-08-06T01:46:31.833Z,96542.11
2023-08-06T01:49:02.795Z,96540.92
2023-08-06T01:51:33.869Z,96529.60
2023-08-06T01:54:05.022Z,96523.62
2023-08-06T01:56:36.107Z,96515.27
2023-08-06T01:59:07.275Z,96514.14
2023-08-06T02:01:38.410Z,96511.98
2023-08-06T02:04:09.633Z,96509.94
2023-08-06T02:06:41.118Z,96508.84
2023-08-06T02:09:12.025Z,96508.19
2023-08-06T02:11:43.162Z,96502.86
2023-08-06T02:14:15.168Z,96501.59
2023-08-06T02:16:46.125Z,96498.79
2023-08-06T02:19:17.919Z,96496.05
2023-08-06T02:21:49.016Z,96495.23
2023-08-06T02:24:20.155Z,96497.36
2023-08-06T02:26:52.683Z,96497.00
2023-08-06T02:29:24.004Z,96492.33
2023-08-06T02:31:55.237Z,96493.28
2023-08-06T02:34:27.092Z,96493.06
2023-08-06T02:36:58.197Z,96489.15
2023-08-06T02:39:29.655Z,96485.09
2023-08-06T02:42:00.496Z,96475.69
2023-08-06T02:44:32.465Z,96470.20
2023-08-06T02:47:04.005Z,96463.77
2023-08-06T02:49:35.156Z,96456.45
2023-08-06T02:52:06.758Z,96447.65
2023-08-06T02:54:37.731Z,96439.64
2023-08-06T02:57:09.897Z,96435.72
2023-08-06T02:59:40.935Z,96434.59
2023-08-06T03:02:12.108Z,96428.96
2023-08-06T03:04:44.231Z,96421.17
2023-08-06T03:07:15.336Z,96422.34
2023-08-06T03:09:46.276Z,96422.08
2023-08-06T03:12:17.717Z,96419.77
2023-08-06T03:14:48.868Z,96416.11
2023-08-06T03:17:19.959Z,96407.87
2023-08-06T03:19:51.034Z,96406.95
2023-08-06T03:22:22.073Z,96408.11
2023-08-06T03:24:55.392Z,96402.33
2023-08-06T03:27:26.410Z,96400.77
2023-08-06T03:29:58.100Z,96400.39
2023-08-06T03:32:29.165Z,96399.79
2023-08-06T03:35:00.422Z,96399.34
2023-08-06T03:37:32.960Z,96402.28
2023-08-06T03:40:05.066Z,96398.67
2023-08-06T03:42:36.293Z,96393.41
2023-08-06T03:45:08.964Z,96389.50
2023-08-06T03:47:40.351Z,96385.20
2023-08-06T03:50:12.168Z,96382.60
2023-08-06T03:52:43.268Z,96374.75
2023-08-06T03:55:14.354Z,96370.75
2023-08-06T03:57:45.259Z,96369.05
2023-08-06T04:00:16.789Z,96363.20
2023-08-06T04:02:47.988Z,96358.45
2023-08-06T04:05:19.735Z,96354.06
2023-08-06T04:07:50.700Z,96349.98
2023-08-06T04:10:21.846Z,96343.39
2023-08-06T04:12:52.859Z,96331.19
2023-08-06T04:15:23.972Z,96327.86
2023-08-06T04:17:55.120Z,96321.51
2023-08-06T04:20:26.124Z,96316.40
2023-08-06T04:22:57.860Z,96312.84
2023-08-06T04:25:28.870Z,96309.29
2023-08-06T04:27:59.846Z,96312.69
2023-08-06T04:30:30.789Z,96313.50
2023-08-06T04:33:01.888Z,96309.35
2023-08-06T04:35:33.856Z,96307.01
2023-08-06T04:38:04.858Z,96302.66
2023-08-06T04:40:38.397Z,96308.64
2023-08-06T04:43:09.653Z,96304.77
2023-08-06T04:45:47.672Z,96310.30
2023-08-06T04:48:18.931Z,96305.64
2023-08-06T04:50:51.203Z,96300.45
2023-08-06T04:53:22.356Z,96302.90
2023-08-06T04:55:53.436Z,96305.62
2023-08-06T04:58:24.429Z,96310.57
2023-08-06T05:00:56.870Z,96316.48
2023-08-06T05:03:28.348Z,96324.75
2023-08-06T05:05:59.695Z,96327.86
2023-08-06T05:08:31.064Z,96329.34
2023-08-06T05:11:02.380Z,96328.55
2023-08-06T05:13:33.345Z,96335.42
2023-08-06T05:16:04.721Z,96333.59
2023-08-06T05:18:38.902Z,96334.25
2023-08-06T05:21:10.025Z,96338.40
2023-08-06T05:23:40.999Z,96335.83
2023-08-06T05:26:12.101Z,96338.13
2023-08-06T05:28:43.485Z,96339.41
2023-08-06T05:31:14.666Z,96342.16
2023-08-06T05:33:45.734Z,96341.88
2023-08-06T05:36:18.908Z,96342.48
2023-08-06T05:38:50.131Z,96346.42
2023-08-06T05:41:21.099Z,96347.04
2023-08-06T05:43:52.222Z,96348.34
2023-08-06T05:46:23.428Z,96348.05
2023-08-06T05:48:54.428Z,96346.73
2023-08-06T05:51:25.701Z,96348.45
2023-08-06T05:53:56.726Z,96348.73
2023-08-06T05:56:27.772Z,96348.75
2023-08-06T05:58:58.803Z,96350.54
2023-08-06T06:01:29.867Z,96353.23
2023-08-06T06:04:00.845Z,96354.81
2023-08-06T06:06:32.152Z,96353.80
2023-08-06T06:09:03.566Z,96352.72
2023-08-06T06:11:34.577Z,96349.98
2023-08-06T06:14:05.568Z,96348.45
2023-08-06T06:16:36.864Z,96348.70
2023-08-06T06:19:07.988Z,96349.72
2023-08-06T06:21:40.138Z,96350.98
2023-08-06T06:24:11.389Z,96347.52
2023-08-06T06:31:15.496Z,96344.27
2023-08-06T06:34:52.225Z,96341.63
2023-08-06T06:38:03.911Z,96343.58
2023-08-06T06:40:41.100Z,96344.04
2023-08-06T06:43:24.329Z,96339.25
2023-08-06T06:46:13.932Z,96345.02
2023-08-06T06:49:03.611Z,96341.51
2023-08-06T06:51:55.741Z,96339.21
2023-08-06T06:54:32.386Z,96341.48
2023-08-06T06:57:15.898Z,96343.86
2023-08-06T07:10:45.245Z,96345.44
2023-08-06T07:13:17.812Z,96341.61
2023-08-06T07:15:48.819Z,96339.71
2023-08-06T07:18:19.927Z,96336.34
2023-08-06T07:20:54.204Z,96338.41
2023-08-06T07:23:26.860Z,96338.14
2023-08-06T07:25:57.847Z,96338.46
2023-08-06T07:28:29.074Z,96334.73
2023-08-06T07:31:00.334Z,96335.81
2023-08-06T07:33:31.602Z,96335.19
2023-08-06T07:36:09.485Z,96327.02
2023-08-06T07:38:40.954Z,96322.56
2023-08-06T07:41:12.057Z,96322.36
2023-08-06T07:43:43.905Z,96322.24
2023-08-06T07:46:15.385Z,96313.25
2023-08-06T07:48:47.456Z,96316.98
2023-08-06T07:51:19.110Z,96315.83
2023-08-06T07:53:50.155Z,96311.20
2023-08-06T07:56:21.148Z,96307.96
2023-08-06T07:58:52.193Z,96313.42
2023-08-06T08:01:23.511Z,96309.01
2023-08-06T08:03:54.720Z,96306.96
2023-08-06T08:06:26.068Z,96308.62
2023-08-06T08:08:57.004Z,96306.10
2023-08-06T08:11:28.159Z,96302.61
2023-08-06T08:13:59.141Z,96302.92
2023-08-06T08:16:30.249Z,96299.33
2023-08-06T08:19:01.504Z,96295.71
2023-08-06T08:21:32.551Z,96297.86
2023-08-06T08:24:06.154Z,96298.54
2023-08-06T08:26:37.245Z,96294.02
2023-08-06T08:29:08.444Z,96290.41
2023-08-06T08:31:40.706Z,96285.89
2023-08-06T08:34:11.725Z,96284.05
2023-08-06T08:36:42.870Z,96283.52
2023-08-06T08:39:13.949Z,96285.75
2023-08-06T08:41:46.114Z,96284.95
2023-08-06T08:44:18.915Z,96284.59
2023-08-06T08:46:51.290Z,96286.58
2023-08-06T08:49:25.745Z,96284.02
2023-08-06T08:51:58.640Z,96285.42
2023-08-06T08:54:31.012Z,96282.18
2023-08-06T08:57:01.950Z,96283.44
2023-08-06T08:59:34.134Z,96283.82
2023-08-06T09:02:06.729Z,96283.61
2023-08-06T09:04:38.358Z,96281.84
2023-08-06T09:07:10.502Z,96285.02
2023-08-06T09:09:46.006Z,96283.17
2023-08-06T09:12:19.156Z,96286.52
2023-08-06T09:14:50.428Z,96282.69
2023-08-06T09:17:21.899Z,96283.73
2023-08-06T09:19:53.157Z,96282.63
2023-08-06T09:22:24.072Z,96277.73
2023-08-06T09:24:55.075Z,96276.39
2023-08-06T09:27:26.769Z,96276.84
2023-08-06T09:29:57.805Z,96275.37
2023-08-06T09:32:29.138Z,96277.75
2023-08-06T09:35:01.067Z,96276.35
2023-08-06T09:37:39.173Z,96272.92
2023-08-06T09:40:28.745Z,96270.64
2023-08-06T09:43:01.518Z,96271.30
2023-08-06T09:45:35.003Z,96270.57
2023-08-06T09:48:07.215Z,96265.53
2023-08-06T09:50:39.383Z,96264.51
2023-08-06T09:53:11.655Z,96266.21
2023-08-06T09:55:43.196Z,96259.99
2023-08-06T09:58:15.641Z,96259.92
2023-08-06T10:00:46.944Z,96256.21
2023-08-06T10:03:19.249Z,96253.62
2023-08-06T10:05:51.222Z,96256.00
2023-08-06T10:08:23.203Z,96254.45
2023-08-06T10:10:55.581Z,96251.35
2023-08-06T10:13:27.974Z,96250.17
2023-08-06T10:15:59.408Z,96247.20
2023-08-06T10:18:31.829Z,96246.40
2023-08-06T10:21:03.518Z,96243.44
2023-08-06T10:23:42.708Z,96244.78
2023-08-06T10:26:17.208Z,96241.07
2023-08-06T10:28:48.170Z,96243.30
2023-08-06T10:31:19.244Z,96242.92
2023-08-06T10:33:50.861Z,96243.21
2023-08-06T10:36:21.938Z,96242.98
2023-08-06T10:38:55.184Z,96240.17
2023-08-06T10:41:32.355Z,96237.08
2023-08-06T10:44:11.058Z,96235.22
2023-08-06T10:46:42.228Z,96238.04
2023-08-06T10:49:15.965Z,96237.45
2023-08-06T10:51:47.564Z,96238.79
2023-08-06T10:54:19.083Z,96229.74
2023-08-06T10:56:50.752Z,96236.19
2023-08-06T10:59:22.578Z,96238.65
2023-08-06T11:01:54.535Z,96234.58
2023-08-06T11:04:26.974Z,96237.63
2023-08-06T11:06:57.867Z,96236.80
2023-08-06T11:09:28.912Z,96243.03
2023-08-06T11:11:59.837Z,96243.40
2023-08-06T11:14:32.809Z,96244.88
2023-08-06T11:17:04.142Z,96245.40
2023-08-06T11:19:36.162Z,96246.58
2023-08-06T11:22:07.366Z,96243.33
2023-08-06T11:24:39.453Z,96241.70
2023-08-06T11:27:16.328Z,96241.81
2023-08-06T11:29:46.338Z,96239.67
2023-08-06T11:32:18.224Z,96244.27
2023-08-06T11:34:49.997Z,96242.66
2023-08-06T11:37:26.372Z,96246.88
2023-08-06T11:40:01.682Z,96244.95
2023-08-06T11:42:36.909Z,96245.61
2023-08-06T11:45:10.678Z,96241.48
2023-08-06T11:47:43.372Z,96237.32
2023-08-06T11:50:26.208Z,96237.55
2023-08-06T11:53:02.127Z,96244.89
2023-08-06T11:55:33.484Z,96240.44
2023-08-06T11:58:06.994Z,96240.21
2023-08-06T12:00:38.784Z,96246.74
2023-08-06T12:03:10.028Z,96240.22
2023-08-06T12:05:41.839Z,96243.48
2023-08-06T12:08:12.887Z,96246.23
2023-08-06T12:10:44.128Z,96251.70
2023-08-06T12:13:15.369Z,96248.51
2023-08-06T12:15:46.606Z,96256.14
2023-08-06T12:18:17.877Z,96255.77
2023-08-06T12:20:49.028Z,96261.29
2023-08-06T12:23:20.307Z,96252.00
2023-08-06T12:25:51.913Z,96254.95
2023-08-06T12:28:24.154Z,96254.20
2023-08-06T12:30:56.442Z,96256.86
2023-08-06T12:33:28.397Z,96258.92
2023-08-06T12:35:59.584Z,96267.90
2023-08-06T12:38:34.864Z,96265.53
2023-08-06T12:41:05.867Z,96271.23
2023-08-06T12:43:37.110Z,96272.64
2023-08-06T12:46:08.153Z,96272.79
2023-08-06T12:48:39.261Z,96275.23
2023-08-06T12:51:10.170Z,96279.23
2023-08-06T12:53:41.194Z,96286.87
2023-08-06T12:56:12.245Z,96290.20
2023-08-06T12:58:43.820Z,96287.52
2023-08-06T13:01:14.870Z,96289.02
2023-08-06T13:03:46.093Z,96292.72
2023-08-06T13:06:17.234Z,96294.80
2023-08-06T13:08:48.237Z,96294.27
2023-08-06T13:11:20.195Z,96294.88
2023-08-06T13:13:54.322Z,96297.70
2023-08-06T13:16:25.639Z,96296.88
2023-08-06T13:18:56.721Z,96304.00
2023-08-06T13:21:33.528Z,96305.28
2023-08-06T13:24:04.759Z,96311.66
2023-08-06T13:26:35.822Z,96315.73
2023-08-06T13:29:08.493Z,96319.20
2023-08-06T13:31:39.771Z,96317.77
2023-08-06T13:34:10.786Z,96321.98
2023-08-06T13:36:42.078Z,96322.86
2023-08-06T13:39:13.336Z,96323.67
2023-08-06T13:41:44.530Z,96327.16
2023-08-06T13:44:16.069Z,96328.27
2023-08-06T13:46:46.994Z,96329.09
2023-08-06T13:49:18.033Z,96326.04
2023-08-06T13:51:49.140Z,96324.56
2023-08-06T13:54:21.796Z,96328.44
2023-08-06T13:56:54.623Z,96331.19
2023-08-06T13:59:26.263Z,96331.71
2023-08-06T14:02:00.825Z,96337.80
2023-08-06T14:04:31.896Z,96333.48
2023-08-06T14:07:03.075Z,96339.85
2023-08-06T14:09:35.505Z,96336.79
2023-08-06T14:12:06.871Z,96334.98
2023-08-06T14:14:38.860Z,96335.48
2023-08-06T14:17:09.788Z,96337.77
2023-08-06T14:19:40.773Z,96332.73
2023-08-06T14:22:11.806Z,96331.60
2023-08-06T14:24:43.050Z,96335.30
2023-08-06T14:27:14.064Z,96337.25
2023-08-06T14:29:45.119Z,96344.45
2023-08-06T14:32:19.363Z,96344.32
2023-08-06T14:34:50.422Z,96347.15
2023-08-06T14:37:21.470Z,96352.34
2023-08-06T14:39:55.397Z,96352.64
2023-08-06T14:42:26.735Z,96350.86
2023-08-06T14:44:57.777Z,96350.65
2023-08-06T14:47:28.664Z,96354.42
2023-08-06T14:49:59.560Z,96357.30
2023-08-06T14:52:30.687Z,96359.30
2023-08-06T14:55:03.613Z,96362.34
2023-08-06T14:57:34.979Z,96365.98
2023-08-06T15:00:07.816Z,96367.23
2023-08-06T15:02:38.999Z,96364.61
2023-08-06T15:05:10.920Z,96367.42
2023-08-06T15:07:41.926Z,96363.72
2023-08-06T15:10:25.845Z,96361.93
2023-08-06T15:12:58.872Z,96360.89
2023-08-06T15:15:30.349Z,96362.20
2023-08-06T15:18:01.597Z,96363.68
2023-08-06T15:20:33.556Z,96362.28
2023-08-06T15:23:04.713Z,96364.36
2023-08-06T15:25:35.823Z,96369.55
2023-08-06T15:28:08.255Z,96367.54
2023-08-06T15:30:40.852Z,96368.20
2023-08-06T15:33:11.863Z,96370.71
2023-08-06T15:35:42.974Z,96368.71
2023-08-06T15:38:14.127Z,96369.73
2023-08-06T15:40:46.536Z,96374.19
2023-08-06T15:43:17.852Z,96375.08
2023-08-06T15:45:49.098Z,96372.79
2023-08-06T15:48:20.146Z,96376.44
2023-08-06T15:50:51.259Z,96373.41
2023-08-06T15:53:22.415Z,96373.86
2023-08-06T15:55:53.703Z,96374.52
2023-08-06T15:58:24.668Z,96376.77
2023-08-06T16:00:55.668Z,96377.27
2023-08-06T16:03:26.603Z,96375.64
2023-08-06T16:05:58.255Z,96369.34
2023-08-06T16:08:30.111Z,96372.45
2023-08-06T16:11:01.654Z,96370.90
2023-08-06T16:13:33.121Z,96375.79
2023-08-06T16:16:04.272Z,96373.34
2023-08-06T16:18:35.302Z,96372.50
2023-08-06T16:21:06.249Z,96376.52
2023-08-06T16:23:37.288Z,96374.28
2023-08-06T16:26:08.377Z,96371.17
2023-08-06T16:28:39.755Z,96375.10
2023-08-06T16:31:11.582Z,96372.80
2023-08-06T16:33:44.011Z,96378.82
2023-08-06T16:36:15.103Z,96375.34
2023-08-06T16:38:46.100Z,96377.48
2023-08-06T16:41:16.988Z,96376.23
2023-08-06T16:43:48.074Z,96375.11
2023-08-06T16:46:19.333Z,96377.33
2023-08-06T16:48:50.729Z,96376.35
2023-08-06T16:51:21.818Z,96376.88
2023-08-06T16:53:52.794Z,96376.27
2023-08-06T16:56:24.183Z,96373.52
2023-08-06T16:58:55.434Z,96375.02
2023-08-06T17:01:26.593Z,96378.94
2023-08-06T17:03:57.725Z,96379.59
2023-08-06T17:06:28.685Z,96384.85
2023-08-06T17:08:59.963Z,96384.02
2023-08-06T17:11:34.375Z,96382.90
2023-08-06T17:14:05.350Z,96381.49
2023-08-06T17:16:36.336Z,96382.09
2023-08-06T17:19:07.379Z,96380.74
2023-08-06T17:21:39.168Z,96382.36
2023-08-06T17:24:10.196Z,96390.80
2023-08-06T17:26:41.296Z,96386.73
2023-08-06T17:29:12.420Z,96388.88
2023-08-06T17:31:43.791Z,96390.55
2023-08-06T17:34:14.855Z,96392.83
2023-08-06T17:36:46.000Z,96393.98
2023-08-06T17:39:17.426Z,96396.40
2023-08-06T17:41:49.083Z,96398.29
2023-08-06T17:44:20.312Z,96401.60
2023-08-06T17:46:51.715Z,96398.40
2023-08-06T17:49:23.025Z,96396.25
2023-08-06T17:51:54.090Z,96398.23
2023-08-06T17:54:25.745Z,96401.55
2023-08-06T17:56:59.298Z,96402.73
2023-08-06T17:59:31.104Z,96398.93
2023-08-06T18:02:02.261Z,96402.26
2023-08-06T18:04:33.891Z,96398.11
2023-08-06T18:07:05.037Z,96401.14
2023-08-06T18:09:36.030Z,96399.95
2023-08-06T18:12:09.721Z,96398.67
2023-08-06T18:14:40.782Z,96401.27
2023-08-06T18:17:12.120Z,96402.35
2023-08-06T18:19:43.113Z,96403.80
2023-08-06T18:22:14.111Z,96398.96
2023-08-06T18:24:45.010Z,96397.23
2023-08-06T18:27:18.812Z,96399.02
2023-08-06T18:29:50.560Z,96401.27
2023-08-06T18:32:22.323Z,96406.73
2023-08-06T18:34:53.457Z,96408.66
2023-08-06T18:37:24.652Z,96413.68
2023-08-06T18:40:02.445Z,96410.50
2023-08-06T18:42:34.545Z,96409.61
2023-08-06T18:45:05.937Z,96413.53
2023-08-06T18:47:36.883Z,96416.34
2023-08-06T18:50:09.098Z,96416.40
2023-08-06T18:52:40.268Z,96422.84
2023-08-06T18:55:11.743Z,96423.64
2023-08-06T18:57:42.860Z,96423.42
2023-08-06T19:00:15.237Z,96422.45
2023-08-06T19:02:46.384Z,96422.05
2023-08-06T19:05:17.725Z,96421.81
2023-08-06T19:07:48.597Z,96421.89
2023-08-06T19:10:19.824Z,96423.30
2023-08-06T19:12:50.855Z,96419.06
2023-08-06T19:15:21.948Z,96416.97
2023-08-06T19:17:52.876Z,96414.20
2023-08-06T19:20:24.045Z,96413.73
2023-08-06T19:22:55.152Z,96414.09
2023-08-06T19:25:26.188Z,96409.40
2023-08-06T19:27:57.243Z,96403.90
2023-08-06T19:30:29.140Z,96404.91
2023-08-06T19:33:00.117Z,96405.43
2023-08-06T19:35:31.133Z,96407.59
2023-08-06T19:38:02.255Z,96407.45
2023-08-06T19:40:33.440Z,96408.21
2023-08-06T19:43:04.534Z,96407.71
2023-08-06T19:45:35.580Z,96404.61
2023-08-06T19:48:07.499Z,96405.05
2023-08-06T19:50:38.517Z,96395.59
2023-08-06T19:53:09.497Z,96404.54
2023-08-06T19:55:45.824Z,96411.19
2023-08-06T19:58:17.022Z,96406.64
2023-08-06T20:00:48.117Z,96401.41
2023-08-06T20:03:21.986Z,96397.23
2023-08-06T20:05:53.411Z,96396.48
2023-08-06T20:08:24.425Z,96396.75
2023-08-06T20:10:58.130Z,96403.50
2023-08-06T20:13:29.184Z,96404.13
2023-08-06T20:16:01.628Z,96405.59
2023-08-06T20:18:32.790Z,96407.64
2023-08-06T20:21:03.658Z,96409.20
2023-08-06T20:23:35.074Z,96407.50
2023-08-06T20:26:06.406Z,96407.36
2023-08-06T20:28:37.464Z,96406.99
2023-08-06T20:31:08.590Z,96406.41
2023-08-06T20:33:39.744Z,96409.88
2023-08-06T20:36:10.640Z,96406.48
2023-08-06T20:38:44.797Z,96405.60
2023-08-06T20:41:16.182Z,96403.15
2023-08-06T20:43:47.501Z,96402.27
2023-08-06T20:46:18.390Z,96403.52
2023-08-06T20:48:49.712Z,96401.00
2023-08-06T20:51:20.722Z,96399.60
2023-08-06T20:53:51.860Z,96403.13
2023-08-06T20:56:22.779Z,96407.17
2023-08-06T20:58:53.720Z,96410.20
2023-08-06T21:01:25.036Z,96413.84
2023-08-06T21:03:55.980Z,96417.31
2023-08-06T21:06:27.081Z,96415.75
2023-08-06T21:08:57.932Z,96412.13
2023-08-06T21:11:29.306Z,96409.31
2023-08-06T21:14:00.422Z,96411.23
2023-08-06T21:16:32.160Z,96405.01
2023-08-06T21:19:05.670Z,96404.84
2023-08-06T21:21:37.527Z,96405.42
2023-08-06T21:24:09.832Z,96408.58
2023-08-06T21:26:40.853Z,96403.36
2023-08-06T21:29:12.183Z,96406.73
2023-08-06T21:31:43.244Z,96412.27
2023-08-06T21:34:14.853Z,96414.69
2023-08-06T21:36:45.948Z,96415.36
2023-08-06T21:39:17.369Z,96416.39
2023-08-06T21:41:48.532Z,96421.64
2023-08-06T21:44:19.587Z,96423.79
2023-08-06T21:46:50.658Z,96425.33
2023-08-06T21:49:22.099Z,96424.52
2023-08-06T21:51:53.468Z,96423.70
2023-08-06T21:54:24.707Z,96422.89
2023-08-06T21:56:55.663Z,96424.81
2023-08-06T21:59:26.767Z,96427.86
2023-08-06T22:01:58.012Z,96428.08
2023-08-06T22:04:29.274Z,96427.25
2023-08-06T22:07:00.258Z,96428.30
2023-08-06T22:09:31.249Z,96428.31
2023-08-06T22:12:02.289Z,96424.70
2023-08-06T22:14:33.284Z,96424.91
2023-08-06T22:17:04.378Z,96420.10
2023-08-06T22:19:35.226Z,96420.84
2023-08-06T22:22:06.776Z,96417.67
2023-08-06T22:24:37.886Z,96423.08
2023-08-06T22:27:09.656Z,96422.56
2023-08-06T22:29:40.996Z,96424.18
2023-08-06T22:32:12.271Z,96422.34
2023-08-06T22:34:43.621Z,96422.04
2023-08-06T22:37:14.663Z,96415.67
2023-08-06T22:39:46.083Z,96419.88
2023-08-06T22:42:17.146Z,96415.14
2023-08-06T22:44:48.294Z,96416.54
2023-08-06T22:47:21.037Z,96414.38
2023-08-06T22:49:52.289Z,96413.93
2023-08-06T22:52:23.175Z,96411.05
2023-08-06T22:55:08.691Z,96407.86
2023-08-06T22:57:43.165Z,96407.48
2023-08-06T23:00:16.361Z,96410.43
2023-08-06T23:02:58.784Z,96410.20
2023-08-06T23:05:34.646Z,96406.94
2023-08-06T23:08:05.937Z,96407.29
2023-08-06T23:10:37.209Z,96410.83
2023-08-06T23:13:09.663Z,96407.27
2023-08-06T23:15:40.883Z,96407.27
2023-08-06T23:18:11.998Z,96402.45
2023-08-06T23:20:42.952Z,96401.77
2023-08-06T23:23:14.022Z,96397.69
2023-08-06T23:25:45.002Z,96399.23
2023-08-06T23:28:16.212Z,96407.87
2023-08-06T23:30:52.064Z,96409.33
2023-08-06T23:33:23.361Z,96411.08
2023-08-06T23:35:54.243Z,96409.65
2023-08-06T23:38:28.157Z,96409.25
2023-08-06T23:40:59.146Z,96408.84
2023-08-06T23:43:30.795Z,96402.77
2023-08-06T23:46:01.791Z,96401.92
2023-08-06T23:48:33.131Z,96407.52
2023-08-06T23:51:04.214Z,96406.30
2023-08-06T23:53:35.693Z,96404.58
2023-08-06T23:56:07.019Z,96407.42
2023-08-06T23:58:38.071Z,96406.00
